sensor_id;sensor_type;location;lat;lon;timestamp;pressure;altitude;pressure_sealevel;temperature;humidity
64628;BME280;68467;50.960;0.314;2023-05-24T00:00:11;100914.59;;;11.04;97.05
64628;BME280;68467;50.960;0.314;2023-05-24T00:02:39;100907.89;;;10.95;95.47
64628;BME280;68467;50.960;0.314;2023-05-24T00:05:07;100902.45;;;11.23;95.96
64628;BME280;68467;50.960;0.314;2023-05-24T00:07:35;100896.43;;;11.57;95.34
64628;BME280;68467;50.960;0.314;2023-05-24T00:10:02;100896.27;;;11.36;95.23
64628;BME280;68467;50.960;0.314;2023-05-24T00:12:30;100897.28;;;11.11;94.96
64628;BME280;68467;50.960;0.314;2023-05-24T00:14:57;100892.29;;;12.20;92.94
64628;BME280;68467;50.960;0.314;2023-05-24T00:17:25;100892.63;;;12.19;92.02
64628;BME280;68467;50.960;0.314;2023-05-24T00:19:52;100892.12;;;11.50;93.73
64628;BME280;68467;50.960;0.314;2023-05-24T00:22:20;100892.81;;;11.56;93.78
64628;BME280;68467;50.960;0.314;2023-05-24T00:24:48;100893.44;;;11.92;93.45
64628;BME280;68467;50.960;0.314;2023-05-24T00:27:16;100894.69;;;11.98;93.18
64628;BME280;68467;50.960;0.314;2023-05-24T00:29:43;100894.09;;;11.82;92.91
64628;BME280;68467;50.960;0.314;2023-05-24T00:32:11;100893.05;;;11.32;94.57
64628;BME280;68467;50.960;0.314;2023-05-24T00:34:38;100896.21;;;11.47;94.75
64628;BME280;68467;50.960;0.314;2023-05-24T00:37:05;100895.45;;;11.20;95.63
64628;BME280;68467;50.960;0.314;2023-05-24T00:39:33;100893.97;;;10.84;96.90
64628;BME280;68467;50.960;0.314;2023-05-24T00:42:01;100889.11;;;10.88;97.07
64628;BME280;68467;50.960;0.314;2023-05-24T00:44:29;100888.89;;;10.62;96.78
64628;BME280;68467;50.960;0.314;2023-05-24T00:46:56;100887.22;;;10.82;97.04
64628;BME280;68467;50.960;0.314;2023-05-24T00:49:24;100884.71;;;11.37;95.51
64628;BME280;68467;50.960;0.314;2023-05-24T00:51:52;100880.05;;;11.08;95.92
64628;BME280;68467;50.960;0.314;2023-05-24T00:54:21;100873.55;;;11.56;93.86
64628;BME280;68467;50.960;0.314;2023-05-24T00:56:49;100873.15;;;11.03;93.94
64628;BME280;68467;50.960;0.314;2023-05-24T00:59:16;100871.00;;;11.53;92.65
64628;BME280;68467;50.960;0.314;2023-05-24T01:01:43;100868.56;;;11.93;93.55
64628;BME280;68467;50.960;0.314;2023-05-24T01:04:10;100866.11;;;11.58;93.05
64628;BME280;68467;50.960;0.314;2023-05-24T01:06:47;100863.22;;;11.71;94.02
64628;BME280;68467;50.960;0.314;2023-05-24T01:09:25;100863.60;;;11.07;93.78
64628;BME280;68467;50.960;0.314;2023-05-24T01:12:10;100861.25;;;11.40;93.73
64628;BME280;68467;50.960;0.314;2023-05-24T01:14:47;100857.33;;;11.41;92.63
64628;BME280;68467;50.960;0.314;2023-05-24T01:17:24;100853.06;;;11.78;90.30
64628;BME280;68467;50.960;0.314;2023-05-24T01:19:56;100854.00;;;10.92;92.60
64628;BME280;68467;50.960;0.314;2023-05-24T01:22:51;100851.25;;;11.71;90.27
64628;BME280;68467;50.960;0.314;2023-05-24T01:25:44;100853.10;;;11.60;90.71
64628;BME280;68467;50.960;0.314;2023-05-24T01:28:13;100850.91;;;11.40;90.71
64628;BME280;68467;50.960;0.314;2023-05-24T01:30:43;100849.12;;;12.23;88.24
64628;BME280;68467;50.960;0.314;2023-05-24T01:33:11;100857.84;;;11.88;90.75
64628;BME280;68467;50.960;0.314;2023-05-24T01:35:38;100859.09;;;13.27;88.52
64628;BME280;68467;50.960;0.314;2023-05-24T01:38:06;100861.13;;;12.72;88.57
64628;BME280;68467;50.960;0.314;2023-05-24T01:40:34;100859.87;;;12.84;87.85
64628;BME280;68467;50.960;0.314;2023-05-24T01:43:12;100858.20;;;12.80;89.37
64628;BME280;68467;50.960;0.314;2023-05-24T01:45:47;100856.42;;;12.61;89.18
64628;BME280;68467;50.960;0.314;2023-05-24T01:48:26;100856.60;;;12.45;89.02
64628;BME280;68467;50.960;0.314;2023-05-24T01:50:59;100857.65;;;12.04;89.16
64628;BME280;68467;50.960;0.314;2023-05-24T01:53:39;100860.30;;;12.49;90.23
64628;BME280;68467;50.960;0.314;2023-05-24T01:56:08;100858.29;;;11.99;90.37
64628;BME280;68467;50.960;0.314;2023-05-24T01:58:38;100857.27;;;11.83;91.18
64628;BME280;68467;50.960;0.314;2023-05-24T02:01:07;100854.75;;;12.78;90.17
64628;BME280;68467;50.960;0.314;2023-05-24T02:03:35;100849.21;;;11.93;91.04
64628;BME280;68467;50.960;0.314;2023-05-24T02:06:02;100846.38;;;12.80;89.79
64628;BME280;68467;50.960;0.314;2023-05-24T02:08:29;100846.99;;;12.68;88.61
64628;BME280;68467;50.960;0.314;2023-05-24T02:10:56;100846.81;;;13.11;87.85
64628;BME280;68467;50.960;0.314;2023-05-24T02:13:24;100846.80;;;13.01;86.76
64628;BME280;68467;50.960;0.314;2023-05-24T02:15:51;100846.35;;;13.05;86.43
64628;BME280;68467;50.960;0.314;2023-05-24T02:18:18;100844.70;;;13.22;86.49
64628;BME280;68467;50.960;0.314;2023-05-24T02:20:45;100844.18;;;13.64;85.64
64628;BME280;68467;50.960;0.314;2023-05-24T02:23:12;100841.24;;;13.09;85.03
64628;BME280;68467;50.960;0.314;2023-05-24T02:25:40;100839.90;;;12.75;86.42
64628;BME280;68467;50.960;0.314;2023-05-24T02:28:07;100841.54;;;13.30;86.72
64628;BME280;68467;50.960;0.314;2023-05-24T02:30:35;100840.13;;;13.64;85.02
64628;BME280;68467;50.960;0.314;2023-05-24T02:33:01;100835.70;;;13.51;84.54
64628;BME280;68467;50.960;0.314;2023-05-24T02:35:29;100833.53;;;13.61;86.26
64628;BME280;68467;50.960;0.314;2023-05-24T02:37:56;100832.79;;;13.68;87.70
64628;BME280;68467;50.960;0.314;2023-05-24T02:40:23;100831.08;;;13.72;85.81
64628;BME280;68467;50.960;0.314;2023-05-24T02:42:50;100822.94;;;14.03;84.40
64628;BME280;68467;50.960;0.314;2023-05-24T02:45:21;100820.25;;;14.08;82.40
64628;BME280;68467;50.960;0.314;2023-05-24T02:47:48;100816.91;;;14.44;81.53
64628;BME280;68467;50.960;0.314;2023-05-24T02:50:15;100812.31;;;14.32;81.64
64628;BME280;68467;50.960;0.314;2023-05-24T02:52:42;100809.83;;;14.11;81.08
64628;BME280;68467;50.960;0.314;2023-05-24T02:55:09;100814.80;;;13.96;81.73
64628;BME280;68467;50.960;0.314;2023-05-24T02:57:36;100813.77;;;13.69;82.33
64628;BME280;68467;50.960;0.314;2023-05-24T03:00:04;100811.50;;;13.47;82.71
64628;BME280;68467;50.960;0.314;2023-05-24T03:02:31;100809.46;;;13.79;82.12
64628;BME280;68467;50.960;0.314;2023-05-24T03:04:58;100802.88;;;14.10;81.45
64628;BME280;68467;50.960;0.314;2023-05-24T03:07:25;100808.27;;;13.54;81.79
64628;BME280;68467;50.960;0.314;2023-05-24T03:09:52;100806.51;;;13.58;82.25
64628;BME280;68467;50.960;0.314;2023-05-24T03:12:19;100809.95;;;13.22;83.26
64628;BME280;68467;50.960;0.314;2023-05-24T03:14:46;100807.02;;;13.67;82.29
64628;BME280;68467;50.960;0.314;2023-05-24T03:17:14;100808.47;;;13.46;83.04
64628;BME280;68467;50.960;0.314;2023-05-24T03:19:50;100807.91;;;13.37;83.38
64628;BME280;68467;50.960;0.314;2023-05-24T03:22:17;100808.41;;;13.85;82.89
64628;BME280;68467;50.960;0.314;2023-05-24T03:24:44;100814.52;;;13.58;84.11
64628;BME280;68467;50.960;0.314;2023-05-24T03:27:11;100814.66;;;13.65;84.73
64628;BME280;68467;50.960;0.314;2023-05-24T03:29:38;100809.95;;;13.35;85.43
64628;BME280;68467;50.960;0.314;2023-05-24T03:32:05;100806.22;;;13.07;87.28
64628;BME280;68467;50.960;0.314;2023-05-24T03:34:32;100803.57;;;12.88;89.42
64628;BME280;68467;50.960;0.314;2023-05-24T03:36:59;100806.02;;;12.10;90.82
64628;BME280;68467;50.960;0.314;2023-05-24T03:39:26;100802.47;;;11.96;92.33
64628;BME280;68467;50.960;0.314;2023-05-24T03:41:53;100800.77;;;12.08;92.87
64628;BME280;68467;50.960;0.314;2023-05-24T03:44:21;100805.37;;;12.19;93.37
64628;BME280;68467;50.960;0.314;2023-05-24T03:46:49;100809.98;;;11.48;94.30
64628;BME280;68467;50.960;0.314;2023-05-24T03:49:16;100807.77;;;12.45;94.04
64628;BME280;68467;50.960;0.314;2023-05-24T03:51:43;100809.99;;;12.39;94.41
64628;BME280;68467;50.960;0.314;2023-05-24T03:54:10;100805.89;;;12.94;95.37
64628;BME280;68467;50.960;0.314;2023-05-24T03:56:37;100805.08;;;12.13;98.64
64628;BME280;68467;50.960;0.314;2023-05-24T03:59:05;100807.33;;;11.52;100.00
64628;BME280;68467;50.960;0.314;2023-05-24T04:01:32;100805.73;;;11.50;100.00
64628;BME280;68467;50.960;0.314;2023-05-24T04:03:59;100811.70;;;12.60;100.00
64628;BME280;68467;50.960;0.314;2023-05-24T04:06:26;100811.88;;;11.50;100.00
64628;BME280;68467;50.960;0.314;2023-05-24T04:08:54;100815.18;;;12.61;100.00
64628;BME280;68467;50.960;0.314;2023-05-24T04:11:21;100822.36;;;12.13;100.00
64628;BME280;68467;50.960;0.314;2023-05-24T04:13:48;100821.14;;;12.10;100.00
64628;BME280;68467;50.960;0.314;2023-05-24T04:16:16;100819.84;;;12.84;100.00
64628;BME280;68467;50.960;0.314;2023-05-24T04:18:43;100821.54;;;13.02;100.00
64628;BME280;68467;50.960;0.314;2023-05-24T04:21:10;100819.77;;;13.41;100.00
64628;BME280;68467;50.960;0.314;2023-05-24T04:23:37;100819.21;;;13.35;100.00
64628;BME280;68467;50.960;0.314;2023-05-24T04:26:04;100817.24;;;12.88;100.00
64628;BME280;68467;50.960;0.314;2023-05-24T04:28:32;100815.44;;;12.66;100.00
64628;BME280;68467;50.960;0.314;2023-05-24T04:30:59;100809.88;;;12.62;100.00
64628;BME280;68467;50.960;0.314;2023-05-24T04:33:26;100807.51;;;13.46;100.00
64628;BME280;68467;50.960;0.314;2023-05-24T04:35:53;100808.05;;;12.86;100.00
64628;BME280;68467;50.960;0.314;2023-05-24T04:38:20;100808.14;;;13.35;100.00
64628;BME280;68467;50.960;0.314;2023-05-24T04:40:47;100803.29;;;13.15;100.00
64628;BME280;68467;50.960;0.314;2023-05-24T04:43:14;100799.35;;;12.00;100.00
64628;BME280;68467;50.960;0.314;2023-05-24T04:45:41;100797.41;;;13.20;100.00
64628;BME280;68467;50.960;0.314;2023-05-24T04:48:08;100792.27;;;12.85;100.00
64628;BME280;68467;50.960;0.314;2023-05-24T04:50:36;100790.61;;;12.75;100.00
64628;BME280;68467;50.960;0.314;2023-05-24T04:53:03;100791.03;;;13.30;100.00
64628;BME280;68467;50.960;0.314;2023-05-24T04:55:30;100791.93;;;12.68;100.00
64628;BME280;68467;50.960;0.314;2023-05-24T04:57:57;100792.77;;;11.42;100.00
64628;BME280;68467;50.960;0.314;2023-05-24T05:00:24;100796.43;;;12.76;100.00
64628;BME280;68467;50.960;0.314;2023-05-24T05:02:51;100799.74;;;11.57;100.00
64628;BME280;68467;50.960;0.314;2023-05-24T05:05:18;100800.91;;;11.15;100.00
64628;BME280;68467;50.960;0.314;2023-05-24T05:07:46;100800.21;;;10.75;100.00
64628;BME280;68467;50.960;0.314;2023-05-24T05:10:13;100798.67;;;10.88;100.00
64628;BME280;68467;50.960;0.314;2023-05-24T05:12:41;100798.10;;;10.61;100.00
64628;BME280;68467;50.960;0.314;2023-05-24T05:15:09;100795.99;;;10.94;100.00
64628;BME280;68467;50.960;0.314;2023-05-24T05:17:36;100795.07;;;11.31;100.00
64628;BME280;68467;50.960;0.314;2023-05-24T05:20:04;100789.18;;;11.21;100.00
64628;BME280;68467;50.960;0.314;2023-05-24T05:22:31;100788.03;;;11.40;100.00
64628;BME280;68467;50.960;0.314;2023-05-24T05:24:58;100788.89;;;11.46;100.00
64628;BME280;68467;50.960;0.314;2023-05-24T05:27:26;100787.41;;;11.41;100.00
64628;BME280;68467;50.960;0.314;2023-05-24T05:29:53;100786.91;;;11.31;100.00
64628;BME280;68467;50.960;0.314;2023-05-24T05:32:20;100784.13;;;11.43;100.00
64628;BME280;68467;50.960;0.314;2023-05-24T05:34:47;100786.33;;;11.15;100.00
64628;BME280;68467;50.960;0.314;2023-05-24T05:37:14;100786.75;;;11.76;100.00
64628;BME280;68467;50.960;0.314;2023-05-24T05:39:41;100789.20;;;11.40;100.00
64628;BME280;68467;50.960;0.314;2023-05-24T05:42:08;100788.70;;;11.44;100.00
64628;BME280;68467;50.960;0.314;2023-05-24T05:44:35;100789.47;;;11.63;100.00
64628;BME280;68467;50.960;0.314;2023-05-24T05:47:03;100789.30;;;12.15;100.00
64628;BME280;68467;50.960;0.314;2023-05-24T05:49:30;100791.17;;;11.54;100.00
64628;BME280;68467;50.960;0.314;2023-05-24T05:51:57;100795.98;;;12.60;100.00
64628;BME280;68467;50.960;0.314;2023-05-24T05:54:24;100797.27;;;13.17;100.00
64628;BME280;68467;50.960;0.314;2023-05-24T05:56:51;100795.47;;;13.67;100.00
64628;BME280;68467;50.960;0.314;2023-05-24T05:59:19;100794.66;;;13.72;100.00
64628;BME280;68467;50.960;0.314;2023-05-24T06:01:46;100793.55;;;13.79;100.00
64628;BME280;68467;50.960;0.314;2023-05-24T06:04:13;100794.70;;;13.62;100.00
64628;BME280;68467;50.960;0.314;2023-05-24T06:06:40;100795.59;;;12.27;100.00
64628;BME280;68467;50.960;0.314;2023-05-24T06:09:07;100797.66;;;10.75;100.00
64628;BME280;68467;50.960;0.314;2023-05-24T06:11:34;100795.90;;;11.50;100.00
64628;BME280;68467;50.960;0.314;2023-05-24T06:14:01;100796.46;;;12.05;100.00
64628;BME280;68467;50.960;0.314;2023-05-24T06:16:29;100798.75;;;12.48;100.00
64628;BME280;68467;50.960;0.314;2023-05-24T06:18:55;100801.09;;;12.65;100.00
64628;BME280;68467;50.960;0.314;2023-05-24T06:21:23;100801.08;;;12.91;100.00
64628;BME280;68467;50.960;0.314;2023-05-24T06:23:50;100797.60;;;13.26;100.00
64628;BME280;68467;50.960;0.314;2023-05-24T06:26:17;100799.01;;;12.46;100.00
64628;BME280;68467;50.960;0.314;2023-05-24T06:28:44;100797.79;;;12.56;100.00
64628;BME280;68467;50.960;0.314;2023-05-24T06:31:11;100796.29;;;13.59;100.00
64628;BME280;68467;50.960;0.314;2023-05-24T06:33:38;100801.40;;;13.02;100.00
64628;BME280;68467;50.960;0.314;2023-05-24T06:36:05;100808.23;;;12.73;100.00
64628;BME280;68467;50.960;0.314;2023-05-24T06:38:33;100808.88;;;13.17;100.00
64628;BME280;68467;50.960;0.314;2023-05-24T06:41:00;100816.36;;;12.95;100.00
64628;BME280;68467;50.960;0.314;2023-05-24T06:43:27;100820.19;;;12.25;100.00
64628;BME280;68467;50.960;0.314;2023-05-24T06:45:54;100819.80;;;12.48;100.00
64628;BME280;68467;50.960;0.314;2023-05-24T06:48:22;100820.15;;;13.26;100.00
64628;BME280;68467;50.960;0.314;2023-05-24T06:50:49;100821.47;;;13.46;100.00
64628;BME280;68467;50.960;0.314;2023-05-24T06:53:16;100825.04;;;12.73;100.00
64628;BME280;68467;50.960;0.314;2023-05-24T06:55:44;100828.03;;;12.29;100.00
64628;BME280;68467;50.960;0.314;2023-05-24T06:58:11;100823.21;;;12.24;100.00
64628;BME280;68467;50.960;0.314;2023-05-24T07:00:38;100815.24;;;13.35;100.00
64628;BME280;68467;50.960;0.314;2023-05-24T07:03:05;100810.28;;;13.72;100.00
64628;BME280;68467;50.960;0.314;2023-05-24T07:05:32;100806.35;;;14.21;100.00
64628;BME280;68467;50.960;0.314;2023-05-24T07:07:59;100816.46;;;12.91;100.00
64628;BME280;68467;50.960;0.314;2023-05-24T07:10:25;100819.55;;;12.80;100.00
64628;BME280;68467;50.960;0.314;2023-05-24T07:12:52;100822.07;;;12.84;100.00
64628;BME280;68467;50.960;0.314;2023-05-24T07:15:20;100821.87;;;13.40;100.00
64628;BME280;68467;50.960;0.314;2023-05-24T07:17:48;100825.67;;;13.56;100.00
64628;BME280;68467;50.960;0.314;2023-05-24T07:20:15;100822.54;;;14.14;100.00
64628;BME280;68467;50.960;0.314;2023-05-24T07:22:42;100820.41;;;14.19;100.00
64628;BME280;68467;50.960;0.314;2023-05-24T07:25:10;100824.23;;;13.23;100.00
64628;BME280;68467;50.960;0.314;2023-05-24T07:27:37;100824.62;;;12.95;100.00
64628;BME280;68467;50.960;0.314;2023-05-24T07:30:06;100818.04;;;14.53;100.00
64628;BME280;68467;50.960;0.314;2023-05-24T07:32:33;100822.82;;;13.44;100.00
64628;BME280;68467;50.960;0.314;2023-05-24T07:35:00;100821.14;;;14.63;100.00
64628;BME280;68467;50.960;0.314;2023-05-24T07:37:27;100819.51;;;13.92;100.00
64628;BME280;68467;50.960;0.314;2023-05-24T07:39:54;100820.43;;;14.49;100.00
64628;BME280;68467;50.960;0.314;2023-05-24T07:42:21;100828.14;;;12.83;100.00
64628;BME280;68467;50.960;0.314;2023-05-24T07:44:50;100823.81;;;13.02;100.00
64628;BME280;68467;50.960;0.314;2023-05-24T07:47:17;100815.90;;;14.29;100.00
64628;BME280;68467;50.960;0.314;2023-05-24T07:49:45;100812.86;;;14.51;100.00
64628;BME280;68467;50.960;0.314;2023-05-24T07:52:12;100815.33;;;13.19;100.00
64628;BME280;68467;50.960;0.314;2023-05-24T07:54:39;100809.78;;;14.24;100.00
64628;BME280;68467;50.960;0.314;2023-05-24T07:57:06;100802.38;;;13.97;100.00
64628;BME280;68467;50.960;0.314;2023-05-24T07:59:34;100798.20;;;14.03;100.00
64628;BME280;68467;50.960;0.314;2023-05-24T08:02:02;100793.73;;;15.18;100.00
64628;BME280;68467;50.960;0.314;2023-05-24T08:04:29;100791.26;;;13.97;100.00
64628;BME280;68467;50.960;0.314;2023-05-24T08:06:57;100791.78;;;14.82;100.00
64628;BME280;68467;50.960;0.314;2023-05-24T08:09:24;100788.92;;;14.91;100.00
64628;BME280;68467;50.960;0.314;2023-05-24T08:11:51;100792.55;;;15.38;99.79
64628;BME280;68467;50.960;0.314;2023-05-24T08:14:18;100795.94;;;14.80;100.00
64628;BME280;68467;50.960;0.314;2023-05-24T08:16:45;100794.92;;;14.49;100.00
64628;BME280;68467;50.960;0.314;2023-05-24T08:19:12;100794.73;;;14.16;100.00
64628;BME280;68467;50.960;0.314;2023-05-24T08:21:39;100791.82;;;15.69;99.26
64628;BME280;68467;50.960;0.314;2023-05-24T08:24:06;100794.83;;;14.96;100.00
64628;BME280;68467;50.960;0.314;2023-05-24T08:26:33;100792.57;;;14.81;100.00
64628;BME280;68467;50.960;0.314;2023-05-24T08:29:00;100792.64;;;15.15;100.00
64628;BME280;68467;50.960;0.314;2023-05-24T08:31:28;100793.41;;;14.88;100.00
64628;BME280;68467;50.960;0.314;2023-05-24T08:33:55;100792.83;;;15.83;99.34
64628;BME280;68467;50.960;0.314;2023-05-24T08:36:23;100790.59;;;15.44;100.00
64628;BME280;68467;50.960;0.314;2023-05-24T08:38:50;100790.59;;;16.56;98.27
64628;BME280;68467;50.960;0.314;2023-05-24T08:41:17;100792.06;;;16.71;97.49
64628;BME280;68467;50.960;0.314;2023-05-24T08:43:46;100789.80;;;16.44;96.99
64628;BME280;68467;50.960;0.314;2023-05-24T08:46:15;100790.07;;;16.02;95.75
64628;BME280;68467;50.960;0.314;2023-05-24T08:48:45;100787.16;;;15.79;100.00
64628;BME280;68467;50.960;0.314;2023-05-24T08:51:14;100790.97;;;16.70;97.66
64628;BME280;68467;50.960;0.314;2023-05-24T08:53:43;100789.37;;;16.35;95.75
64628;BME280;68467;50.960;0.314;2023-05-24T08:56:10;100783.57;;;16.76;98.87
64628;BME280;68467;50.960;0.314;2023-05-24T08:58:38;100787.30;;;17.16;93.91
64628;BME280;68467;50.960;0.314;2023-05-24T09:01:06;100787.81;;;16.81;94.75
64628;BME280;68467;50.960;0.314;2023-05-24T09:03:35;100790.17;;;16.62;95.46
64628;BME280;68467;50.960;0.314;2023-05-24T09:06:03;100792.28;;;16.88;100.00
64628;BME280;68467;50.960;0.314;2023-05-24T09:08:31;100789.04;;;17.08;93.29
64628;BME280;68467;50.960;0.314;2023-05-24T09:10:59;100785.56;;;17.13;93.16
64628;BME280;68467;50.960;0.314;2023-05-24T09:13:27;100783.13;;;16.56;93.04
64628;BME280;68467;50.960;0.314;2023-05-24T09:15:55;100781.67;;;15.88;93.46
64628;BME280;68467;50.960;0.314;2023-05-24T09:18:22;100782.29;;;15.72;94.04
64628;BME280;68467;50.960;0.314;2023-05-24T09:20:50;100779.41;;;16.23;92.73
64628;BME280;68467;50.960;0.314;2023-05-24T09:23:17;100776.44;;;16.38;95.68
64628;BME280;68467;50.960;0.314;2023-05-24T09:25:46;100772.20;;;16.86;89.10
64628;BME280;68467;50.960;0.314;2023-05-24T09:28:15;100777.89;;;17.26;87.41
64628;BME280;68467;50.960;0.314;2023-05-24T09:30:43;100775.62;;;16.12;93.51
64628;BME280;68467;50.960;0.314;2023-05-24T09:33:10;100778.78;;;16.16;96.68
64628;BME280;68467;50.960;0.314;2023-05-24T09:35:41;100778.04;;;17.16;93.59
64628;BME280;68467;50.960;0.314;2023-05-24T09:38:15;100771.48;;;17.76;90.45
64628;BME280;68467;50.960;0.314;2023-05-24T09:40:43;100773.91;;;17.47;90.86
64628;BME280;68467;50.960;0.314;2023-05-24T09:43:10;100771.79;;;17.30;91.00
64628;BME280;68467;50.960;0.314;2023-05-24T09:45:40;100768.87;;;17.40;91.52
64628;BME280;68467;50.960;0.314;2023-05-24T09:48:10;100764.17;;;17.20;94.73
64628;BME280;68467;50.960;0.314;2023-05-24T09:50:37;100759.64;;;17.97;91.67
64628;BME280;68467;50.960;0.314;2023-05-24T09:53:05;100767.33;;;16.95;98.30
64628;BME280;68467;50.960;0.314;2023-05-24T09:55:35;100766.98;;;17.80;92.63
64628;BME280;68467;50.960;0.314;2023-05-24T09:58:04;100766.87;;;17.86;91.05
64628;BME280;68467;50.960;0.314;2023-05-24T10:00:33;100759.57;;;18.34;90.88
64628;BME280;68467;50.960;0.314;2023-05-24T10:03:01;100755.22;;;18.34;84.64
64628;BME280;68467;50.960;0.314;2023-05-24T10:05:30;100754.82;;;17.99;90.71
64628;BME280;68467;50.960;0.314;2023-05-24T10:07:57;100754.92;;;17.37;90.99
64628;BME280;68467;50.960;0.314;2023-05-24T10:10:27;100747.41;;;18.03;89.76
64628;BME280;68467;50.960;0.314;2023-05-24T10:12:55;100747.01;;;18.68;89.84
64628;BME280;68467;50.960;0.314;2023-05-24T10:15:24;100750.02;;;18.57;85.37
64628;BME280;68467;50.960;0.314;2023-05-24T10:17:59;100749.38;;;18.18;85.77
64628;BME280;68467;50.960;0.314;2023-05-24T10:20:26;100741.77;;;18.01;88.41
64628;BME280;68467;50.960;0.314;2023-05-24T10:22:59;100749.28;;;17.63;85.94
64628;BME280;68467;50.960;0.314;2023-05-24T10:25:27;100751.30;;;17.60;88.66
64628;BME280;68467;50.960;0.314;2023-05-24T10:27:56;100754.27;;;17.77;87.27
64628;BME280;68467;50.960;0.314;2023-05-24T10:30:28;100751.40;;;17.91;82.58
64628;BME280;68467;50.960;0.314;2023-05-24T10:32:58;100749.14;;;18.30;84.47
64628;BME280;68467;50.960;0.314;2023-05-24T10:35:27;100752.40;;;17.72;90.22
64628;BME280;68467;50.960;0.314;2023-05-24T10:37:55;100753.22;;;17.90;91.32
64628;BME280;68467;50.960;0.314;2023-05-24T10:40:22;100762.22;;;17.69;88.45
64628;BME280;68467;50.960;0.314;2023-05-24T10:42:50;100758.61;;;18.47;85.50
64628;BME280;68467;50.960;0.314;2023-05-24T10:45:35;100753.28;;;17.65;82.71
64628;BME280;68467;50.960;0.314;2023-05-24T10:48:37;100749.58;;;18.72;82.53
64628;BME280;68467;50.960;0.314;2023-05-24T10:51:38;100746.79;;;18.77;80.20
64628;BME280;68467;50.960;0.314;2023-05-24T10:54:14;100748.34;;;18.49;90.05
64628;BME280;68467;50.960;0.314;2023-05-24T10:56:43;100748.47;;;18.67;85.35
64628;BME280;68467;50.960;0.314;2023-05-24T10:59:22;100747.15;;;18.42;89.29
64628;BME280;68467;50.960;0.314;2023-05-24T11:01:54;100749.08;;;18.80;86.52
64628;BME280;68467;50.960;0.314;2023-05-24T11:04:22;100746.86;;;18.16;88.32
64628;BME280;68467;50.960;0.314;2023-05-24T11:06:53;100748.64;;;18.18;84.53
64628;BME280;68467;50.960;0.314;2023-05-24T11:09:22;100744.75;;;19.04;85.07
64628;BME280;68467;50.960;0.314;2023-05-24T11:11:54;100746.70;;;18.76;85.29
64628;BME280;68467;50.960;0.314;2023-05-24T11:14:23;100743.81;;;18.80;84.36
64628;BME280;68467;50.960;0.314;2023-05-24T11:16:50;100748.05;;;19.25;83.78
64628;BME280;68467;50.960;0.314;2023-05-24T11:19:18;100745.80;;;19.79;79.90
64628;BME280;68467;50.960;0.314;2023-05-24T11:21:47;100743.13;;;19.58;82.22
64628;BME280;68467;50.960;0.314;2023-05-24T11:24:16;100747.13;;;18.32;84.18
64628;BME280;68467;50.960;0.314;2023-05-24T11:26:44;100746.39;;;18.86;82.98
64628;BME280;68467;50.960;0.314;2023-05-24T11:29:12;100746.27;;;18.84;86.74
64628;BME280;68467;50.960;0.314;2023-05-24T11:31:46;100746.10;;;19.40;83.72
64628;BME280;68467;50.960;0.314;2023-05-24T11:34:14;100741.03;;;19.27;80.71
64628;BME280;68467;50.960;0.314;2023-05-24T11:36:41;100740.10;;;19.59;76.62
64628;BME280;68467;50.960;0.314;2023-05-24T11:39:08;100746.57;;;18.97;81.46
64628;BME280;68467;50.960;0.314;2023-05-24T11:41:37;100743.51;;;18.76;78.24
64628;BME280;68467;50.960;0.314;2023-05-24T11:44:06;100738.77;;;19.40;83.31
64628;BME280;68467;50.960;0.314;2023-05-24T11:46:34;100739.36;;;19.40;83.63
64628;BME280;68467;50.960;0.314;2023-05-24T11:49:01;100734.99;;;20.84;81.60
64628;BME280;68467;50.960;0.314;2023-05-24T11:51:29;100736.43;;;20.69;77.92
64628;BME280;68467;50.960;0.314;2023-05-24T11:53:57;100733.68;;;20.65;82.65
64628;BME280;68467;50.960;0.314;2023-05-24T11:56:25;100740.07;;;18.46;81.98
64628;BME280;68467;50.960;0.314;2023-05-24T11:59:01;100744.27;;;19.35;84.15
64628;BME280;68467;50.960;0.314;2023-05-24T12:01:30;100744.32;;;19.92;86.10
64628;BME280;68467;50.960;0.314;2023-05-24T12:03:57;100741.49;;;20.13;81.17
64628;BME280;68467;50.960;0.314;2023-05-24T12:06:33;100732.55;;;20.51;77.55
64628;BME280;68467;50.960;0.314;2023-05-24T12:09:00;100735.84;;;19.82;77.77
64628;BME280;68467;50.960;0.314;2023-05-24T12:11:27;100727.80;;;20.49;74.44
64628;BME280;68467;50.960;0.314;2023-05-24T12:13:56;100724.28;;;20.46;75.18
64628;BME280;68467;50.960;0.314;2023-05-24T12:16:23;100719.51;;;20.07;76.69
64628;BME280;68467;50.960;0.314;2023-05-24T12:18:50;100716.08;;;20.11;78.88
64628;BME280;68467;50.960;0.314;2023-05-24T12:21:17;100718.16;;;20.15;83.37
64628;BME280;68467;50.960;0.314;2023-05-24T12:23:46;100722.77;;;20.39;81.69
64628;BME280;68467;50.960;0.314;2023-05-24T12:26:13;100718.14;;;20.30;77.50
64628;BME280;68467;50.960;0.314;2023-05-24T12:28:43;100721.51;;;20.01;81.26
64628;BME280;68467;50.960;0.314;2023-05-24T12:31:10;100719.51;;;20.42;81.83
64628;BME280;68467;50.960;0.314;2023-05-24T12:33:38;100723.04;;;20.19;77.59
64628;BME280;68467;50.960;0.314;2023-05-24T12:36:06;100716.83;;;21.66;77.24
64628;BME280;68467;50.960;0.314;2023-05-24T12:38:33;100720.37;;;20.73;81.00
64628;BME280;68467;50.960;0.314;2023-05-24T12:41:00;100715.54;;;21.09;82.17
64628;BME280;68467;50.960;0.314;2023-05-24T12:43:28;100714.62;;;21.13;74.35
64628;BME280;68467;50.960;0.314;2023-05-24T12:45:55;100715.20;;;21.20;72.90
64628;BME280;68467;50.960;0.314;2023-05-24T12:48:23;100716.04;;;21.62;77.60
64628;BME280;68467;50.960;0.314;2023-05-24T12:50:50;100722.78;;;21.71;76.19